LGL11H ELLX-EDDH
Flight info
| Callsign | LGL11H |
|---|---|
| Flight time | N/A |
| Altitude | 23000 |
| Route | DIK N853 HMM M170 BASUM/N0319F220 Y850 PIXUR/N0318F210 Y850 MUBZI M105 RIBSO RIBSO7A |
| Aircraft | DH8D/M-SDE2E3FGRY/H |
Departure
| Time | N/A |
|---|---|
| Airport | Luxembourg-Findel International Airport (ELLX) |
Arrival
| Time | 2026-04-30 18:09 |
|---|---|
| Airport | Hamburg Helmut Schmidt Airport (EDDH) |
| Time | Latitude | Longitude | Altitude | Speed | Heading |
|---|---|---|---|---|---|
| 2026-04-30 17:39 | 52.11016 | 8.13353 | 23383 ft | 314 kts | 48° |
| 2026-04-30 17:41 | 52.26512 | 8.26603 | 23388 ft | 320 kts | 25° |
| 2026-04-30 17:42 | 52.30621 | 8.29358 | 23389 ft | 321 kts | 25° |
| 2026-04-30 17:42 | 52.36809 | 8.33511 | 23391 ft | 320 kts | 25° |
| 2026-04-30 17:43 | 52.40947 | 8.36291 | 23389 ft | 321 kts | 25° |
| 2026-04-30 17:44 | 52.47114 | 8.40446 | 23392 ft | 321 kts | 25° |
| 2026-04-30 17:44 | 52.53312 | 8.44634 | 23387 ft | 320 kts | 25° |
| 2026-04-30 17:46 | 52.63623 | 8.51627 | 23393 ft | 320 kts | 25° |
| 2026-04-30 17:47 | 52.71886 | 8.57260 | 23418 ft | 320 kts | 25° |
| 2026-04-30 17:48 | 52.80239 | 8.62980 | 22399 ft | 335 kts | 25° |
| 2026-04-30 17:48 | 52.86461 | 8.67230 | 21004 ft | 315 kts | 26° |
| 2026-04-30 17:49 | 52.94424 | 8.72703 | 18384 ft | 304 kts | 26° |
| 2026-04-30 17:50 | 53.02084 | 8.77996 | 15585 ft | 294 kts | 27° |
| 2026-04-30 17:51 | 53.07701 | 8.81907 | 14411 ft | 285 kts | 27° |
| 2026-04-30 17:52 | 53.13159 | 8.85705 | 12807 ft | 285 kts | 27° |
| 2026-04-30 17:53 | 53.21634 | 8.92598 | 11418 ft | 244 kts | 59° |
| 2026-04-30 17:54 | 53.24429 | 9.02304 | 11412 ft | 231 kts | 66° |
| 2026-04-30 17:55 | 53.27053 | 9.12118 | 11419 ft | 229 kts | 67° |
| 2026-04-30 17:56 | 53.29873 | 9.21578 | 11414 ft | 233 kts | 43° |
| 2026-04-30 17:57 | 53.34542 | 9.24818 | 11411 ft | 241 kts | 24° |
| 2026-04-30 17:58 | 53.39236 | 9.27602 | 11237 ft | 239 kts | 24° |
| 2026-04-30 17:59 | 53.44635 | 9.32897 | 9905 ft | 226 kts | 73° |
| 2026-04-30 18:00 | 53.41978 | 9.42018 | 8424 ft | 229 kts | 124° |
| 2026-04-30 18:00 | 53.39508 | 9.48578 | 7336 ft | 216 kts | 92° |
| 2026-04-30 18:01 | 53.40181 | 9.53317 | 6395 ft | 210 kts | 59° |
| 2026-04-30 18:02 | 53.43000 | 9.58754 | 5713 ft | 213 kts | 51° |
| 2026-04-30 18:02 | 53.45992 | 9.64625 | 4917 ft | 225 kts | 51° |
| 2026-04-30 18:03 | 53.48877 | 9.70372 | 3945 ft | 218 kts | 52° |
| 2026-04-30 18:04 | 53.51664 | 9.75932 | 3134 ft | 191 kts | 51° |
| 2026-04-30 18:05 | 53.54917 | 9.82469 | 2160 ft | 178 kts | 51° |
| 2026-04-30 18:06 | 53.57690 | 9.88051 | 1339 ft | 135 kts | 52° |
| 2026-04-30 18:07 | 53.60166 | 9.93050 | 566 ft | 133 kts | 52° |
| 2026-04-30 18:08 | 53.61882 | 9.96492 | 105 ft | 127 kts | 52° |
| 2026-04-30 18:09 | 53.63294 | 9.99423 | 47 ft | 18 kts | 84° |
| 2026-04-30 18:10 | 53.63278 | 9.99652 | 48 ft | 0 kts | 99° |
| 2026-04-30 18:11 | 53.63276 | 9.99673 | 48 ft | 0 kts | 100° |
| 2026-04-30 18:11 | 53.63245 | 9.99742 | 48 ft | 6 kts | 152° |
| 2026-04-30 18:12 | 53.63112 | 9.99858 | 48 ft | 8 kts | 150° |
| 2026-04-30 18:13 | 53.63026 | 9.99931 | 48 ft | 2 kts | 153° |
| 2026-04-30 18:13 | 53.63021 | 9.99935 | 48 ft | 3 kts | 151° |
| 2026-04-30 18:14 | 53.62969 | 10.00075 | 49 ft | 4 kts | 53° |
| 2026-04-30 18:15 | 53.63032 | 10.00116 | 49 ft | 3 kts | 290° |
| 2026-04-30 18:15 | 53.63041 | 10.00043 | 49 ft | 0 kts | 279° |